Time;durP1;ratioP1;P1;durP2;ratioP2;P2;SDS_P1;SDS_P2;PMS_P1;PMS_P2;Temp;Humidity;BMP_temperature;BMP_pressure;BME280_temperature;BME280_humidity;BME280_pressure;Samples;Min_cycle;Max_cycle;Signal;HPM_P1;HPM_P2
2023/03/31 00:01:19;;;;;;;4.50;1.93;;;14.50;82.80;;;;;;934475;148;27467;-75
2023/03/31 00:03:45;;;;;;;2.72;1.07;;;14.50;83.00;;;;;;937506;148;27353;-75
2023/03/31 00:06:16;;;;;;;2.10;1.30;;;14.50;83.20;;;;;;936708;148;27443;-75
2023/03/31 00:08:39;;;;;;;3.17;1.42;;;14.50;83.40;;;;;;935702;148;27390;-79
2023/03/31 00:11:06;;;;;;;1.47;1.37;;;14.40;83.50;;;;;;937929;148;27399;-79
2023/03/31 00:13:32;;;;;;;2.60;1.70;;;14.50;83.70;;;;;;936019;148;27363;-80
2023/03/31 00:16:01;;;;;;;1.55;1.27;;;14.40;84.00;;;;;;936997;148;27850;-80
2023/03/31 00:18:28;;;;;;;2.13;1.50;;;14.40;84.10;;;;;;935178;148;27443;-80
2023/03/31 00:20:56;;;;;;;2.30;1.40;;;14.40;84.30;;;;;;936473;148;27364;-80
2023/03/31 00:23:26;;;;;;;3.50;1.52;;;14.40;84.60;;;;;;936505;148;27397;-80
2023/03/31 00:25:48;;;;;;;2.67;1.15;;;14.40;84.80;;;;;;938005;148;27471;-80
2023/03/31 00:28:14;;;;;;;1.75;1.05;;;14.40;85.20;;;;;;937299;148;27365;-79
2023/03/31 00:30:41;;;;;;;2.60;1.07;;;14.40;85.40;;;;;;936119;148;27311;-79
2023/03/31 00:33:08;;;;;;;1.92;1.45;;;14.40;85.70;;;;;;935446;148;27427;-80
2023/03/31 00:35:38;;;;;;;2.47;1.10;;;14.30;85.90;;;;;;936651;148;27372;-80
2023/03/31 00:38:04;;;;;;;4.93;1.60;;;14.30;86.30;;;;;;936258;148;27354;-80
2023/03/31 00:40:30;;;;;;;5.40;1.67;;;14.30;86.60;;;;;;935738;148;27330;-80
2023/03/31 00:42:57;;;;;;;2.90;1.37;;;14.30;87.00;;;;;;936094;148;27700;-80
2023/03/31 00:45:23;;;;;;;3.40;1.30;;;14.30;87.40;;;;;;935800;148;27401;-80
2023/03/31 00:47:50;;;;;;;3.45;1.32;;;14.30;87.80;;;;;;936238;148;27475;-80
2023/03/31 00:50:20;;;;;;;2.17;1.20;;;14.30;88.10;;;;;;935340;148;27316;-80
2023/03/31 00:52:46;;;;;;;1.40;0.93;;;14.30;88.50;;;;;;935333;148;27433;-80
2023/03/31 00:55:15;;;;;;;3.00;1.20;;;14.20;88.50;;;;;;936951;148;27341;-80
2023/03/31 00:57:43;;;;;;;3.15;1.50;;;14.20;88.80;;;;;;935407;148;27514;-80
2023/03/31 01:00:15;;;;;;;1.83;1.10;;;14.20;89.10;;;;;;934037;148;27331;-80
2023/03/31 01:02:51;;;;;;;1.93;0.90;;;14.20;89.50;;;;;;935869;148;27354;-80
2023/03/31 01:05:11;;;;;;;2.57;1.23;;;14.20;89.60;;;;;;935233;148;27319;-80
2023/03/31 01:07:37;;;;;;;2.50;1.40;;;14.10;89.70;;;;;;936825;148;27401;-80
2023/03/31 01:10:04;;;;;;;3.33;1.50;;;14.10;89.90;;;;;;935630;148;27549;-80
2023/03/31 01:12:30;;;;;;;2.97;1.50;;;14.00;90.00;;;;;;935580;148;27413;-80
2023/03/31 01:14:57;;;;;;;3.87;1.72;;;14.00;90.20;;;;;;936173;148;27454;-80
2023/03/31 01:17:24;;;;;;;2.83;1.30;;;14.00;90.30;;;;;;934963;148;27356;-80
2023/03/31 01:19:56;;;;;;;3.13;1.50;;;14.00;90.50;;;;;;934888;148;27392;-80
2023/03/31 01:22:32;;;;;;;3.12;1.70;;;14.00;90.70;;;;;;935944;148;27388;-79
2023/03/31 01:25:11;;;;;;;2.83;1.40;;;13.90;90.90;;;;;;935909;148;27479;-80
2023/03/31 01:27:49;;;;;;;3.40;1.40;;;13.90;90.90;;;;;;936586;148;27439;-79
2023/03/31 01:30:37;;;;;;;2.53;1.50;;;13.90;91.10;;;;;;935204;148;27458;-79
2023/03/31 01:33:41;;;;;;;1.77;1.30;;;13.90;91.30;;;;;;933999;148;27405;-79
2023/03/31 01:36:26;;;;;;;2.83;1.30;;;13.90;91.40;;;;;;936446;148;27343;-80
2023/03/31 01:39:20;;;;;;;2.63;1.60;;;13.90;91.30;;;;;;936911;148;27361;-80
2023/03/31 01:41:49;;;;;;;2.67;1.63;;;13.90;91.40;;;;;;934447;148;27385;-80
2023/03/31 01:44:28;;;;;;;3.37;1.90;;;13.90;91.50;;;;;;936868;148;27280;-80
2023/03/31 01:46:58;;;;;;;2.70;1.60;;;13.80;91.60;;;;;;935948;148;27482;-80
2023/03/31 01:49:45;;;;;;;2.50;1.43;;;13.80;91.70;;;;;;936765;148;27338;-79
2023/03/31 01:52:27;;;;;;;3.57;1.50;;;13.80;92.00;;;;;;937063;148;27916;-80
2023/03/31 01:55:09;;;;;;;2.10;1.35;;;13.80;91.80;;;;;;936953;148;27386;-80
2023/03/31 01:57:38;;;;;;;2.55;1.35;;;13.80;92.10;;;;;;937036;148;27349;-80
2023/03/31 02:00:08;;;;;;;2.07;1.50;;;13.80;91.80;;;;;;935425;148;27402;-79
2023/03/31 02:03:09;;;;;;;2.57;1.43;;;13.70;91.80;;;;;;935589;148;27334;-79
2023/03/31 02:05:34;;;;;;;3.57;1.60;;;13.80;92.00;;;;;;933897;148;27342;-80
2023/03/31 02:08:07;;;;;;;2.55;1.50;;;13.70;91.90;;;;;;935588;148;27412;-79
2023/03/31 02:10:34;;;;;;;2.60;1.30;;;13.70;92.10;;;;;;934390;148;27462;-79
2023/03/31 02:13:00;;;;;;;2.23;1.23;;;13.60;92.20;;;;;;936667;148;27345;-80
2023/03/31 02:15:27;;;;;;;3.07;1.60;;;13.60;92.30;;;;;;935716;148;27323;-79
2023/03/31 02:17:53;;;;;;;2.90;1.40;;;13.60;92.30;;;;;;938871;148;27433;-79
2023/03/31 02:20:20;;;;;;;3.70;1.27;;;13.50;92.30;;;;;;935259;148;27417;-79
2023/03/31 02:22:47;;;;;;;1.57;1.27;;;13.50;92.20;;;;;;935086;148;27485;-79
2023/03/31 02:25:13;;;;;;;3.63;1.70;;;13.50;92.30;;;;;;922555;150;27312;-81
2023/03/31 02:27:41;;;;;;;3.93;1.50;;;13.40;92.20;;;;;;921969;150;27335;-81
2023/03/31 02:30:06;;;;;;;3.23;1.40;;;13.30;92.20;;;;;;921627;150;27425;-81
2023/03/31 02:32:33;;;;;;;3.50;1.37;;;13.30;92.40;;;;;;921718;150;27403;-81
2023/03/31 02:35:00;;;;;;;2.67;1.27;;;13.20;92.40;;;;;;925804;150;27312;-81
2023/03/31 02:37:26;;;;;;;2.90;1.40;;;13.10;92.60;;;;;;935756;149;27411;-81
2023/03/31 02:39:53;;;;;;;1.80;1.20;;;13.10;92.80;;;;;;935992;149;27444;-81
2023/03/31 02:42:19;;;;;;;4.63;1.47;;;13.10;93.00;;;;;;929749;149;27332;-81
2023/03/31 02:44:46;;;;;;;1.30;1.00;;;13.00;93.10;;;;;;935293;149;27472;-81
2023/03/31 02:47:13;;;;;;;4.53;1.93;;;13.00;93.30;;;;;;925731;149;27356;-82
2023/03/31 02:49:39;;;;;;;3.47;1.50;;;13.00;93.60;;;;;;924738;150;27413;-81
2023/03/31 02:52:06;;;;;;;2.40;1.23;;;12.90;93.70;;;;;;923073;150;27369;-81
2023/03/31 02:54:45;;;;;;;2.37;1.77;;;12.90;93.90;;;;;;920687;150;27476;-81
2023/03/31 02:57:20;;;;;;;5.33;1.77;;;12.90;94.00;;;;;;921833;150;27513;-82
2023/03/31 02:59:46;;;;;;;3.33;1.63;;;12.90;94.10;;;;;;922600;150;27293;-82
2023/03/31 03:02:31;;;;;;;3.60;1.53;;;12.90;94.20;;;;;;923061;150;27465;-81
2023/03/31 03:05:07;;;;;;;4.07;1.60;;;12.90;94.40;;;;;;927613;149;27951;-82
2023/03/31 03:08:03;;;;;;;2.03;1.27;;;12.90;94.40;;;;;;925898;149;27455;-82
2023/03/31 03:10:54;;;;;;;1.37;1.20;;;13.00;94.50;;;;;;927003;149;27338;-82
2023/03/31 03:13:30;;;;;;;5.30;1.60;;;13.00;94.50;;;;;;931276;149;27782;-82
2023/03/31 03:16:06;;;;;;;2.23;1.50;;;13.00;94.60;;;;;;924803;149;27378;-81
2023/03/31 03:18:32;;;;;;;4.33;1.57;;;13.00;94.80;;;;;;917450;150;27341;-82
2023/03/31 03:20:59;;;;;;;4.23;1.53;;;13.00;94.90;;;;;;922677;150;27497;-82
2023/03/31 03:23:25;;;;;;;2.83;1.70;;;13.00;95.00;;;;;;927448;148;27350;-81
2023/03/31 03:25:52;;;;;;;6.07;1.60;;;13.00;95.20;;;;;;937448;148;27345;-81
2023/03/31 03:28:18;;;;;;;3.07;1.43;;;13.10;95.40;;;;;;936068;148;27286;-81
2023/03/31 03:30:46;;;;;;;2.90;1.80;;;13.10;95.50;;;;;;937353;148;27469;-82
2023/03/31 03:33:15;;;;;;;3.13;1.30;;;13.10;95.60;;;;;;935616;148;27362;-82
2023/03/31 03:35:38;;;;;;;5.87;1.70;;;13.10;95.70;;;;;;934739;148;27403;-82
2023/03/31 03:38:05;;;;;;;5.30;1.60;;;13.10;95.70;;;;;;937124;148;27368;-82
2023/03/31 03:40:31;;;;;;;5.40;1.73;;;13.10;95.70;;;;;;934324;148;27405;-82
2023/03/31 03:42:58;;;;;;;4.67;2.10;;;13.20;95.70;;;;;;935515;148;27385;-82
2023/03/31 03:45:25;;;;;;;3.97;1.33;;;13.20;95.60;;;;;;935881;148;27374;-82
2023/03/31 03:47:51;;;;;;;4.47;2.10;;;13.20;95.60;;;;;;936275;148;27335;-82
2023/03/31 03:50:18;;;;;;;3.77;2.00;;;13.20;95.60;;;;;;935910;148;27361;-82
2023/03/31 03:52:44;;;;;;;4.83;1.20;;;13.20;95.60;;;;;;935347;148;27491;-82
2023/03/31 03:55:11;;;;;;;6.40;1.70;;;13.20;95.70;;;;;;936635;148;27459;-82
2023/03/31 03:57:38;;;;;;;3.23;1.73;;;13.20;95.90;;;;;;938251;148;27295;-82
2023/03/31 04:00:09;;;;;;;2.97;1.80;;;13.20;95.90;;;;;;937890;148;27394;-82
2023/03/31 04:02:31;;;;;;;5.23;1.93;;;13.20;96.00;;;;;;936645;148;27354;-82
2023/03/31 04:04:57;;;;;;;5.43;1.67;;;13.20;96.10;;;;;;936903;148;27375;-82
2023/03/31 04:07:24;;;;;;;3.87;1.70;;;13.20;96.10;;;;;;934882;148;27406;-82
2023/03/31 04:09:51;;;;;;;6.87;2.00;;;13.20;96.30;;;;;;937153;148;27443;-82
2023/03/31 04:12:17;;;;;;;4.77;1.90;;;13.20;96.30;;;;;;937129;148;27359;-82
2023/03/31 04:14:44;;;;;;;5.93;2.17;;;13.20;96.30;;;;;;935826;148;27393;-82
2023/03/31 04:17:14;;;;;;;5.90;1.70;;;13.20;96.30;;;;;;939066;148;27389;-82
2023/03/31 04:19:37;;;;;;;2.97;1.53;;;13.20;96.30;;;;;;936310;148;27329;-82
2023/03/31 04:22:03;;;;;;;5.67;1.97;;;13.20;96.20;;;;;;934973;148;27431;-82
2023/03/31 04:24:31;;;;;;;3.87;1.60;;;13.20;96.30;;;;;;931034;148;27368;-82
2023/03/31 04:26:57;;;;;;;6.87;1.57;;;13.20;96.30;;;;;;930023;148;27401;-82
2023/03/31 04:29:25;;;;;;;6.70;2.03;;;13.20;96.30;;;;;;931791;148;27324;-82
2023/03/31 04:31:51;;;;;;;4.27;1.50;;;13.20;96.40;;;;;;928783;148;27468;-82
2023/03/31 04:34:16;;;;;;;4.37;1.97;;;13.20;96.50;;;;;;930500;148;27400;-83
2023/03/31 04:36:45;;;;;;;5.00;2.07;;;13.20;96.50;;;;;;929351;148;27482;-82
2023/03/31 04:39:10;;;;;;;5.97;2.00;;;13.10;96.60;;;;;;930502;148;27349;-82
2023/03/31 04:41:36;;;;;;;7.10;2.30;;;13.10;96.90;;;;;;928559;148;27358;-82
2023/03/31 04:44:03;;;;;;;4.43;1.73;;;13.10;96.70;;;;;;929365;148;27438;-82
2023/03/31 04:46:29;;;;;;;4.23;2.10;;;13.10;96.70;;;;;;931857;148;27335;-82
2023/03/31 04:48:58;;;;;;;4.43;1.90;;;13.10;96.80;;;;;;930152;148;27456;-82
2023/03/31 04:51:23;;;;;;;7.43;2.07;;;13.10;96.90;;;;;;929215;148;27399;-82
2023/03/31 04:53:49;;;;;;;6.73;2.10;;;13.10;97.00;;;;;;910151;152;27436;-82
2023/03/31 04:56:16;;;;;;;2.83;1.70;;;13.10;97.00;;;;;;929858;148;27474;-82
2023/03/31 04:58:43;;;;;;;5.43;2.10;;;13.10;97.10;;;;;;928091;148;27355;-82
2023/03/31 05:01:12;;;;;;;7.87;2.30;;;13.10;97.20;;;;;;929868;148;27414;-83
2023/03/31 05:03:35;;;;;;;4.13;1.70;;;13.10;97.20;;;;;;929070;148;27383;-82
2023/03/31 05:06:02;;;;;;;4.90;1.80;;;13.10;97.20;;;;;;929020;148;27456;-82
2023/03/31 05:08:29;;;;;;;3.43;1.80;;;13.10;97.30;;;;;;930451;148;27383;-83
2023/03/31 05:10:55;;;;;;;4.83;2.10;;;13.10;97.30;;;;;;928445;148;27435;-83
2023/03/31 05:13:22;;;;;;;4.13;1.60;;;13.10;97.40;;;;;;930649;148;27468;-83
2023/03/31 05:15:50;;;;;;;4.17;1.57;;;13.10;97.40;;;;;;930177;148;27476;-83
2023/03/31 05:18:15;;;;;;;5.57;1.50;;;13.10;97.50;;;;;;928458;148;27375;-83
2023/03/31 05:20:42;;;;;;;4.40;1.70;;;13.10;97.60;;;;;;929360;148;27336;-82
2023/03/31 05:23:08;;;;;;;3.60;1.60;;;13.10;97.70;;;;;;928841;148;27342;-82
2023/03/31 05:25:35;;;;;;;6.03;2.07;;;13.10;97.70;;;;;;930964;149;27397;-82
2023/03/31 05:28:01;;;;;;;5.17;1.70;;;13.10;97.60;;;;;;929912;149;27322;-82
2023/03/31 05:30:28;;;;;;;4.10;1.80;;;13.20;97.80;;;;;;931261;149;27279;-82
2023/03/31 05:32:55;;;;;;;6.90;1.93;;;13.20;97.80;;;;;;935674;148;27361;-83
2023/03/31 05:35:21;;;;;;;5.77;1.40;;;13.20;97.90;;;;;;931520;149;27386;-83
2023/03/31 05:37:48;;;;;;;7.87;1.90;;;13.20;97.90;;;;;;929589;149;27394;-83
2023/03/31 05:40:14;;;;;;;8.00;2.33;;;13.20;98.00;;;;;;930425;149;27377;-84
2023/03/31 05:42:41;;;;;;;3.20;1.90;;;13.20;98.10;;;;;;931980;148;27339;-84
2023/03/31 05:45:07;;;;;;;2.83;1.33;;;13.20;98.00;;;;;;936502;148;27482;-83
2023/03/31 05:47:34;;;;;;;4.17;1.93;;;13.20;98.20;;;;;;936851;148;27487;-84
2023/03/31 05:50:02;;;;;;;5.17;2.40;;;13.20;98.20;;;;;;936741;148;27373;-83
2023/03/31 05:52:27;;;;;;;6.27;1.97;;;13.20;98.30;;;;;;933120;148;27444;-83
2023/03/31 05:54:54;;;;;;;3.10;1.70;;;13.20;98.30;;;;;;929692;149;27427;-83
2023/03/31 05:57:20;;;;;;;5.60;2.37;;;13.10;98.40;;;;;;933099;148;27386;-83
2023/03/31 05:59:47;;;;;;;4.07;1.97;;;13.10;98.40;;;;;;936169;148;27408;-83
2023/03/31 06:02:16;;;;;;;6.77;2.20;;;13.10;98.50;;;;;;934889;148;27489;-76
2023/03/31 06:04:42;;;;;;;2.73;1.57;;;13.10;98.60;;;;;;934670;148;27325;-84
2023/03/31 06:07:07;;;;;;;4.07;1.70;;;13.10;98.70;;;;;;937162;148;27441;-81
2023/03/31 06:09:33;;;;;;;4.77;1.57;;;13.10;98.80;;;;;;932533;149;27425;-84
2023/03/31 06:12:00;;;;;;;4.37;1.80;;;13.10;98.90;;;;;;935503;148;28194;-84
2023/03/31 06:14:27;;;;;;;3.53;1.80;;;13.10;98.90;;;;;;935409;148;27721;-85
2023/03/31 06:16:53;;;;;;;4.37;1.90;;;13.10;98.80;;;;;;931017;149;27323;-84
2023/03/31 06:19:20;;;;;;;6.17;2.03;;;13.10;98.80;;;;;;935589;148;27370;-84
2023/03/31 06:21:46;;;;;;;5.57;1.90;;;13.00;99.00;;;;;;936819;148;27349;-84
2023/03/31 06:24:13;;;;;;;3.70;2.20;;;13.00;99.00;;;;;;936915;148;27803;-84
2023/03/31 06:26:39;;;;;;;5.10;2.00;;;13.00;99.00;;;;;;935107;148;27378;-85
2023/03/31 06:29:06;;;;;;;7.50;1.80;;;13.00;99.70;;;;;;937312;148;27349;-85
2023/03/31 06:31:33;;;;;;;3.40;1.57;;;12.90;99.90;;;;;;935610;148;27457;-85
2023/03/31 06:33:59;;;;;;;5.47;1.83;;;12.90;99.90;;;;;;935777;148;27372;-85
2023/03/31 06:36:26;;;;;;;6.40;1.80;;;12.90;99.90;;;;;;935816;148;27283;-85
2023/03/31 06:38:52;;;;;;;2.93;1.80;;;12.90;99.90;;;;;;936502;148;27352;-85
2023/03/31 06:41:20;;;;;;;4.60;1.80;;;12.80;99.90;;;;;;937376;148;27969;-85
2023/03/31 06:43:46;;;;;;;4.77;2.10;;;12.80;99.90;;;;;;937209;148;27393;-84
2023/03/31 06:46:12;;;;;;;5.47;1.77;;;12.80;99.90;;;;;;937400;148;27338;-84
2023/03/31 06:48:40;;;;;;;4.57;2.43;;;12.80;99.90;;;;;;919879;151;27380;-83
2023/03/31 06:51:05;;;;;;;5.40;2.13;;;12.80;99.90;;;;;;904743;154;27338;-84
2023/03/31 06:53:32;;;;;;;3.07;2.10;;;12.80;99.90;;;;;;900676;154;27432;-84
2023/03/31 06:55:59;;;;;;;5.17;2.10;;;12.80;99.90;;;;;;916028;152;27395;-84
2023/03/31 06:58:25;;;;;;;5.30;2.07;;;12.70;99.90;;;;;;916842;152;27379;-85
2023/03/31 07:00:52;;;;;;;5.43;2.20;;;12.70;99.90;;;;;;900901;153;27417;-84
2023/03/31 07:03:21;;;;;;;4.03;1.87;;;12.70;99.90;;;;;;923548;151;27458;-85
2023/03/31 07:05:48;;;;;;;4.13;2.10;;;12.70;99.90;;;;;;915680;152;27793;-84
2023/03/31 07:08:16;;;;;;;4.43;2.80;;;12.70;99.90;;;;;;901459;154;27428;-84
2023/03/31 07:10:41;;;;;;;4.27;2.30;;;12.70;99.90;;;;;;920355;151;27372;-85
2023/03/31 07:13:07;;;;;;;3.67;1.73;;;12.70;99.90;;;;;;936073;148;27436;-85
2023/03/31 07:15:34;;;;;;;4.97;2.00;;;12.70;99.90;;;;;;936189;148;27389;-85
2023/03/31 07:18:03;;;;;;;4.40;2.30;;;12.70;99.90;;;;;;923205;151;27335;-84
2023/03/31 07:20:31;;;;;;;5.03;2.37;;;12.70;99.90;;;;;;902287;154;27539;-85
2023/03/31 07:22:56;;;;;;;4.30;2.17;;;12.70;99.90;;;;;;922078;151;27414;-84
2023/03/31 07:25:23;;;;;;;5.53;2.43;;;12.70;99.90;;;;;;936984;146;27392;-84
2023/03/31 07:27:50;;;;;;;3.90;2.07;;;12.70;99.90;;;;;;901336;154;27531;-85
2023/03/31 07:30:16;;;;;;;4.30;2.10;;;12.80;99.90;;;;;;900625;155;27491;-84
2023/03/31 07:32:43;;;;;;;3.40;2.10;;;12.80;99.90;;;;;;911831;154;27401;-84
2023/03/31 07:35:10;;;;;;;4.60;2.23;;;12.80;99.90;;;;;;900351;155;27472;-84
2023/03/31 07:37:36;;;;;;;5.47;2.10;;;12.80;99.90;;;;;;911653;154;27563;-85
2023/03/31 07:40:04;;;;;;;3.83;2.53;;;12.80;99.90;;;;;;901162;155;27506;-85
2023/03/31 07:42:29;;;;;;;3.27;2.20;;;12.80;99.90;;;;;;915129;149;27304;-84
2023/03/31 07:44:56;;;;;;;2.93;2.00;;;12.80;99.90;;;;;;912114;154;27462;-85
2023/03/31 07:47:23;;;;;;;4.27;2.27;;;12.80;99.90;;;;;;901803;155;27416;-85
2023/03/31 07:49:49;;;;;;;3.13;2.30;;;12.90;99.90;;;;;;916222;154;27473;-85
2023/03/31 07:52:16;;;;;;;4.17;2.30;;;12.90;99.90;;;;;;901314;155;27299;-84
2023/03/31 07:54:42;;;;;;;3.43;2.30;;;12.90;99.90;;;;;;900496;154;27374;-84
2023/03/31 07:57:09;;;;;;;5.62;2.90;;;12.90;99.90;;;;;;914903;152;27369;-85
2023/03/31 07:59:35;;;;;;;4.30;2.70;;;12.90;99.90;;;;;;921866;151;27385;-84
2023/03/31 08:02:02;;;;;;;4.23;3.17;;;13.00;99.90;;;;;;916013;152;27350;-84
2023/03/31 08:04:28;;;;;;;5.50;3.40;;;13.00;99.90;;;;;;915932;152;27432;-77
2023/03/31 08:06:55;;;;;;;4.93;3.60;;;13.00;99.90;;;;;;915328;152;27361;-75
2023/03/31 08:09:22;;;;;;;5.33;3.77;;;13.00;99.90;;;;;;902482;154;27403;-74
2023/03/31 08:11:48;;;;;;;5.17;3.33;;;13.10;99.90;;;;;;916109;152;27408;-74
2023/03/31 08:14:15;;;;;;;5.20;4.00;;;13.10;99.90;;;;;;900893;153;27484;-74
2023/03/31 08:16:41;;;;;;;4.67;3.27;;;13.20;99.90;;;;;;901593;154;27406;-74
2023/03/31 08:19:08;;;;;;;3.90;2.83;;;13.20;99.90;;;;;;899937;154;27467;-74
2023/03/31 08:21:35;;;;;;;6.53;2.93;;;13.30;99.90;;;;;;900416;155;27427;-74
2023/03/31 08:24:01;;;;;;;5.30;3.20;;;13.30;99.90;;;;;;916358;152;27390;-74
2023/03/31 08:26:28;;;;;;;5.53;2.73;;;13.40;99.90;;;;;;903529;153;27504;-74
2023/03/31 08:28:54;;;;;;;5.25;2.90;;;13.50;99.90;;;;;;905896;153;27389;-74
2023/03/31 08:31:22;;;;;;;3.53;2.63;;;13.60;99.90;;;;;;923411;151;27421;-74
2023/03/31 08:33:47;;;;;;;3.40;2.92;;;13.80;99.90;;;;;;918904;151;27509;-74
2023/03/31 08:36:14;;;;;;;5.10;3.10;;;14.10;99.90;;;;;;920028;151;27416;-74
2023/03/31 08:38:41;;;;;;;4.42;2.52;;;14.60;99.90;;;;;;922617;151;27402;-74
2023/03/31 08:41:07;;;;;;;3.60;2.30;;;15.30;99.90;;;;;;922866;151;27373;-74
2023/03/31 08:43:37;;;;;;;3.12;2.30;;;16.10;99.90;;;;;;921672;151;27390;-74
2023/03/31 08:46:03;;;;;;;2.67;1.80;;;16.90;99.90;;;;;;920618;151;27569;-75
2023/03/31 08:48:30;;;;;;;1.87;1.77;;;17.90;99.90;;;;;;918766;154;27462;-75
2023/03/31 08:51:03;;;;;;;2.15;1.90;;;18.60;99.90;;;;;;921421;151;27326;-75
2023/03/31 08:53:29;;;;;;;2.37;1.70;;;19.20;99.90;;;;;;905747;153;27517;-75
2023/03/31 08:55:56;;;;;;;2.62;2.12;;;19.50;97.90;;;;;;917383;153;27744;-75
2023/03/31 08:58:32;;;;;;;2.50;1.60;;;19.60;94.30;;;;;;907954;153;27511;-75
2023/03/31 09:01:12;;;;;;;2.62;1.52;;;19.60;91.60;;;;;;918062;153;27517;-75
2023/03/31 09:03:58;;;;;;;2.90;1.87;;;19.40;90.00;;;;;;906744;153;27680;-75
2023/03/31 09:06:58;;;;;;;3.65;1.70;;;19.10;88.40;;;;;;909203;153;27808;-75
2023/03/31 09:09:46;;;;;;;3.08;1.57;;;18.70;87.50;;;;;;906481;153;27539;-75
2023/03/31 09:12:16;;;;;;;3.55;1.80;;;18.30;87.00;;;;;;905827;153;27385;-74
2023/03/31 09:14:49;;;;;;;1.45;1.35;;;17.90;87.00;;;;;;906986;153;27434;-74
2023/03/31 09:17:18;;;;;;;2.22;2.00;;;17.60;87.70;;;;;;922843;151;27477;-74
2023/03/31 09:19:53;;;;;;;2.05;1.95;;;17.20;88.50;;;;;;923985;151;27410;-75
2023/03/31 09:22:23;;;;;;;2.60;2.33;;;17.10;91.40;;;;;;920876;151;27303;-74
2023/03/31 09:24:58;;;;;;;1.80;1.60;;;17.00;93.40;;;;;;921784;151;27393;-75
2023/03/31 09:27:25;;;;;;;1.67;1.30;;;17.10;95.00;;;;;;921465;151;27415;-74
2023/03/31 09:30:00;;;;;;;2.47;1.37;;;17.40;98.70;;;;;;916376;152;27455;-74
2023/03/31 09:32:29;;;;;;;1.50;1.40;;;17.80;99.90;;;;;;899716;155;27398;-74
2023/03/31 09:35:02;;;;;;;2.05;1.30;;;18.30;99.00;;;;;;916725;152;27498;-75
2023/03/31 09:37:28;;;;;;;1.50;1.40;;;18.70;95.50;;;;;;917889;151;27550;-74
2023/03/31 09:39:55;;;;;;;2.75;1.55;;;18.90;92.50;;;;;;918947;151;27372;-75
2023/03/31 09:42:22;;;;;;;1.70;1.60;;;18.90;90.10;;;;;;919902;151;27397;-74
2023/03/31 09:44:49;;;;;;;2.10;1.50;;;18.90;87.10;;;;;;921011;151;27484;-74
2023/03/31 09:47:33;;;;;;;2.12;1.50;;;18.70;85.30;;;;;;921921;151;27370;-74
2023/03/31 09:50:00;;;;;;;1.57;1.47;;;18.50;84.50;;;;;;905748;154;27475;-74
2023/03/31 09:52:29;;;;;;;2.35;1.80;;;18.30;85.30;;;;;;899812;155;27472;-74
2023/03/31 09:54:55;;;;;;;1.67;1.42;;;18.10;85.70;;;;;;916107;152;27403;-74
2023/03/31 09:57:28;;;;;;;3.12;1.57;;;17.90;86.40;;;;;;918185;152;27458;-74
2023/03/31 09:59:54;;;;;;;3.02;2.10;;;17.70;87.10;;;;;;917787;152;27448;-74
2023/03/31 10:02:34;;;;;;;4.80;1.80;;;17.60;87.90;;;;;;899590;154;27342;-74
2023/03/31 10:05:00;;;;;;;3.42;2.00;;;17.50;88.80;;;;;;914837;152;27371;-74
2023/03/31 10:07:26;;;;;;;2.42;1.87;;;17.50;90.00;;;;;;899539;155;27940;-74
2023/03/31 10:09:53;;;;;;;3.30;2.10;;;17.50;90.40;;;;;;914240;151;27443;-74
2023/03/31 10:12:23;;;;;;;4.22;2.08;;;17.50;90.10;;;;;;915595;152;27337;-74
2023/03/31 10:14:46;;;;;;;3.52;2.17;;;17.50;88.90;;;;;;900561;155;27441;-74
2023/03/31 10:17:15;;;;;;;3.00;1.72;;;17.50;87.10;;;;;;901865;154;27434;-74
2023/03/31 10:19:51;;;;;;;3.42;1.67;;;17.40;85.70;;;;;;916054;152;27492;-74
2023/03/31 10:22:20;;;;;;;4.15;2.00;;;17.40;85.60;;;;;;919591;151;27451;-74
2023/03/31 10:24:47;;;;;;;3.62;1.75;;;17.20;85.30;;;;;;901391;154;27479;-74
2023/03/31 10:27:22;;;;;;;2.05;1.42;;;17.10;84.50;;;;;;911071;154;27432;-74
2023/03/31 10:29:52;;;;;;;2.25;1.42;;;17.00;84.60;;;;;;900106;155;27396;-74
2023/03/31 10:32:18;;;;;;;4.22;1.50;;;16.80;84.20;;;;;;916068;150;27443;-74
2023/03/31 10:34:45;;;;;;;2.70;1.42;;;16.60;84.70;;;;;;924099;149;27356;-74
2023/03/31 10:37:12;;;;;;;2.33;1.57;;;16.40;84.40;;;;;;922474;149;27382;-74
2023/03/31 10:39:38;;;;;;;2.08;1.22;;;16.30;84.70;;;;;;923711;149;27384;-74
2023/03/31 10:42:05;;;;;;;2.35;1.22;;;16.20;85.60;;;;;;924657;149;27343;-74
2023/03/31 10:44:35;;;;;;;4.58;1.75;;;16.10;86.80;;;;;;923839;149;27388;-73
2023/03/31 10:47:13;;;;;;;2.25;1.47;;;16.00;88.80;;;;;;908343;152;27408;-74
2023/03/31 10:49:39;;;;;;;3.72;1.40;;;16.00;90.30;;;;;;925956;149;27521;-74
2023/03/31 10:52:21;;;;;;;1.90;1.17;;;16.10;90.40;;;;;;907791;152;27323;-74
2023/03/31 10:55:00;;;;;;;3.00;1.35;;;16.20;90.50;;;;;;885774;156;27333;-74
2023/03/31 10:57:35;;;;;;;1.62;1.35;;;16.30;90.40;;;;;;902795;154;27375;-76
2023/03/31 11:00:06;;;;;;;2.10;1.30;;;16.40;89.00;;;;;;898477;155;27538;-76
2023/03/31 11:02:48;;;;;;;1.75;0.95;;;16.40;87.40;;;;;;898519;155;27423;-76
2023/03/31 11:05:21;;;;;;;2.10;1.27;;;16.30;86.50;;;;;;898462;155;27414;-74
2023/03/31 11:07:58;;;;;;;2.83;1.50;;;16.20;86.50;;;;;;899373;155;28079;-75
2023/03/31 11:10:37;;;;;;;1.20;0.90;;;16.20;87.50;;;;;;899683;155;27430;-74
2023/03/31 11:13:05;;;;;;;2.37;0.82;;;16.10;88.70;;;;;;897619;155;27427;-74
2023/03/31 11:16:02;;;;;;;2.25;1.37;;;16.10;89.60;;;;;;899493;155;27395;-74
2023/03/31 11:18:38;;;;;;;2.33;0.70;;;16.10;89.70;;;;;;899161;155;27833;-75
2023/03/31 11:21:15;;;;;;;2.50;0.80;;;16.10;90.10;;;;;;901058;155;27389;-74
2023/03/31 11:23:41;;;;;;;2.25;1.02;;;16.20;90.10;;;;;;899724;155;27427;-74
2023/03/31 11:26:10;;;;;;;2.20;0.90;;;16.30;90.30;;;;;;899325;155;27393;-74
2023/03/31 11:28:57;;;;;;;0.85;0.70;;;16.40;90.40;;;;;;900016;155;27511;-76
2023/03/31 11:31:32;;;;;;;3.42;1.47;;;16.60;90.10;;;;;;898683;155;27971;-76
2023/03/31 11:34:29;;;;;;;2.90;1.10;;;16.70;90.30;;;;;;899794;155;27546;-76
2023/03/31 11:36:59;;;;;;;2.30;0.90;;;17.00;90.40;;;;;;880569;155;27426;-76
2023/03/31 11:39:40;;;;;;;3.87;1.15;;;17.20;90.80;;;;;;902783;153;27871;-74
2023/03/31 11:42:12;;;;;;;2.58;1.30;;;17.40;90.30;;;;;;899714;155;27413;-74
2023/03/31 11:44:45;;;;;;;3.30;1.22;;;17.70;90.10;;;;;;898632;155;27471;-74
2023/03/31 11:47:17;;;;;;;2.52;1.37;;;17.90;89.80;;;;;;898106;155;27508;-74
2023/03/31 11:49:52;;;;;;;4.12;1.30;;;18.10;87.80;;;;;;899189;155;27363;-74
2023/03/31 11:52:22;;;;;;;3.55;1.37;;;18.30;86.60;;;;;;894016;155;27539;-73
2023/03/31 11:55:09;;;;;;;3.52;1.47;;;18.40;85.70;;;;;;900577;155;27481;-74
2023/03/31 11:57:36;;;;;;;4.42;1.87;;;18.60;84.60;;;;;;900193;155;27328;-74
2023/03/31 12:00:12;;;;;;;2.42;1.32;;;18.70;83.70;;;;;;885455;157;27515;-74
2023/03/31 12:02:56;;;;;;;2.98;1.32;;;18.80;82.90;;;;;;870033;159;27964;-74
2023/03/31 12:05:23;;;;;;;3.75;1.85;;;18.90;81.00;;;;;;898080;155;27438;-75
2023/03/31 12:07:58;;;;;;;2.70;1.52;;;19.00;80.90;;;;;;900581;155;27807;-74
2023/03/31 12:10:33;;;;;;;3.50;1.40;;;19.00;81.20;;;;;;899651;155;27422;-78
2023/03/31 12:13:21;;;;;;;3.33;1.90;;;19.10;82.00;;;;;;899455;155;27425;-78
2023/03/31 12:15:51;;;;;;;4.05;1.65;;;19.20;80.30;;;;;;901309;155;27434;-78
2023/03/31 12:18:17;;;;;;;4.55;1.70;;;19.30;79.90;;;;;;900994;155;27382;-78
2023/03/31 12:20:44;;;;;;;6.22;1.90;;;19.30;79.20;;;;;;899336;155;27403;-79
2023/03/31 12:23:13;;;;;;;4.47;2.02;;;19.30;77.80;;;;;;884161;157;27543;-78
2023/03/31 12:25:55;;;;;;;2.50;1.70;;;19.40;77.90;;;;;;899679;155;27348;-78
2023/03/31 12:28:21;;;;;;;3.90;1.82;;;19.40;76.20;;;;;;897603;155;27478;-77
2023/03/31 12:30:48;;;;;;;5.03;2.50;;;19.40;75.20;;;;;;899582;155;27509;-77
2023/03/31 12:33:36;;;;;;;3.55;1.87;;;19.50;76.40;;;;;;900031;155;27541;-78
2023/03/31 12:36:08;;;;;;;3.15;1.70;;;19.60;76.00;;;;;;910489;152;27485;-78
2023/03/31 12:39:08;;;;;;;4.10;1.62;;;19.70;74.00;;;;;;930152;148;27322;-78
2023/03/31 12:41:43;;;;;;;4.35;1.42;;;19.80;74.80;;;;;;929723;148;27363;-78
2023/03/31 12:44:34;;;;;;;5.47;1.80;;;20.00;73.40;;;;;;894051;154;27461;-78
2023/03/31 12:47:13;;;;;;;4.35;1.95;;;20.10;73.60;;;;;;929151;148;27449;-78
2023/03/31 12:50:07;;;;;;;4.40;1.90;;;20.10;73.00;;;;;;929769;148;27362;-77
2023/03/31 12:52:52;;;;;;;3.85;1.47;;;20.20;72.80;;;;;;928901;148;27403;-78
2023/03/31 12:55:37;;;;;;;2.42;1.45;;;20.30;72.90;;;;;;926725;148;27519;-78
2023/03/31 12:58:33;;;;;;;3.40;1.32;;;20.30;70.60;;;;;;928995;148;27391;-79
2023/03/31 13:01:06;;;;;;;2.80;1.20;;;20.20;69.20;;;;;;929615;148;27366;-78
2023/03/31 13:03:41;;;;;;;2.00;1.00;;;20.10;68.80;;;;;;930506;148;27438;-78